Time;durP1;ratioP1;P1;durP2;ratioP2;P2;SDS_P1;SDS_P2;PMS_P1;PMS_P2;Temp;Humidity;BMP_temperature;BMP_pressure;BME280_temperature;BME280_humidity;BME280_pressure;Samples;Min_cycle;Max_cycle;Signal;HPM_P1;HPM_P2
2023/05/03 00:01:46;;;;;;;12.30;4.40;;;7.80;99.90;;;;;;5022916;28;20429;-69
2023/05/03 00:04:15;;;;;;;8.20;3.27;;;7.80;99.90;;;;;;5030544;28;21047;-68
2023/05/03 00:06:42;;;;;;;9.37;4.47;;;7.70;99.90;;;;;;5033912;28;20317;-69
2023/05/03 00:09:09;;;;;;;11.13;3.67;;;7.60;99.90;;;;;;5020727;28;20435;-69
2023/05/03 00:11:35;;;;;;;6.17;3.80;;;7.60;99.90;;;;;;5022578;28;20425;-69
2023/05/03 00:14:01;;;;;;;4.97;3.43;;;7.60;99.90;;;;;;5027125;28;20788;-68
2023/05/03 00:16:26;;;;;;;15.30;3.87;;;7.50;99.90;;;;;;5024165;28;20228;-69
2023/05/03 00:18:52;;;;;;;5.63;2.90;;;7.50;99.90;;;;;;5032698;28;20264;-69
2023/05/03 00:21:17;;;;;;;6.43;2.73;;;7.50;99.90;;;;;;5033549;28;20673;-69
2023/05/03 00:23:43;;;;;;;7.23;3.33;;;7.40;99.90;;;;;;5024555;28;20207;-69
2023/05/03 00:26:09;;;;;;;8.87;3.73;;;7.40;99.90;;;;;;5018994;28;20205;-69
2023/05/03 00:28:34;;;;;;;11.60;4.07;;;7.40;99.90;;;;;;5030873;28;20181;-69
2023/05/03 00:31:08;;;;;;;9.30;4.00;;;7.40;99.90;;;;;;5021892;28;20179;-69
2023/05/03 00:33:34;;;;;;;8.50;3.90;;;7.40;99.90;;;;;;5030811;28;20512;-69
2023/05/03 00:36:07;;;;;;;7.63;3.77;;;7.40;99.90;;;;;;5029198;28;20432;-69
2023/05/03 00:38:32;;;;;;;6.57;3.40;;;7.30;99.90;;;;;;5027344;28;20419;-69
2023/05/03 00:40:58;;;;;;;7.00;3.73;;;7.30;99.90;;;;;;5025996;28;20471;-68
2023/05/03 00:43:23;;;;;;;8.50;3.53;;;7.30;99.90;;;;;;5032346;28;20687;-69
2023/05/03 00:45:50;;;;;;;5.50;2.97;;;7.20;99.90;;;;;;5033207;28;20182;-69
2023/05/03 00:48:17;;;;;;;5.80;3.50;;;7.20;99.90;;;;;;5028569;28;20203;-69
2023/05/03 00:50:44;;;;;;;5.30;2.93;;;7.20;99.90;;;;;;5025597;28;20498;-69
2023/05/03 00:53:10;;;;;;;10.60;3.60;;;7.10;99.90;;;;;;5019263;28;20475;-68
2023/05/03 00:55:36;;;;;;;6.30;3.40;;;7.10;99.90;;;;;;5020277;28;20469;-68
2023/05/03 00:58:01;;;;;;;9.00;3.70;;;7.10;99.90;;;;;;5032706;28;20453;-68
2023/05/03 01:00:27;;;;;;;7.87;3.87;;;7.00;99.90;;;;;;5031414;28;20560;-68
2023/05/03 01:02:53;;;;;;;7.70;3.13;;;7.00;99.90;;;;;;5024585;28;20248;-69
2023/05/03 01:05:21;;;;;;;7.60;3.50;;;7.00;99.90;;;;;;5014662;28;20264;-68
2023/05/03 01:07:54;;;;;;;7.33;3.70;;;6.90;99.90;;;;;;5026341;28;20179;-68
2023/05/03 01:10:32;;;;;;;8.70;3.87;;;6.90;99.90;;;;;;5026147;28;20500;-68
2023/05/03 01:13:16;;;;;;;7.17;3.37;;;6.90;99.90;;;;;;5021188;28;20459;-68
2023/05/03 01:16:19;;;;;;;6.70;4.10;;;6.80;99.90;;;;;;5031377;28;20425;-68
2023/05/03 01:18:48;;;;;;;5.70;3.50;;;6.80;99.90;;;;;;5028489;28;20790;-68
2023/05/03 01:21:20;;;;;;;7.47;4.13;;;6.90;99.90;;;;;;5023420;28;20433;-68
2023/05/03 01:24:03;;;;;;;6.70;3.67;;;6.90;99.90;;;;;;5026886;28;20472;-68
2023/05/03 01:26:29;;;;;;;7.97;2.63;;;6.90;99.90;;;;;;5032403;28;20440;-68
2023/05/03 01:28:55;;;;;;;11.07;4.87;;;6.90;99.90;;;;;;5032084;28;20459;-68
2023/05/03 01:31:37;;;;;;;9.50;3.70;;;6.90;99.90;;;;;;5017738;28;20230;-68
2023/05/03 01:34:24;;;;;;;16.93;3.80;;;6.90;99.90;;;;;;5031249;28;20293;-68
2023/05/03 01:36:52;;;;;;;4.90;2.43;;;6.90;99.90;;;;;;5032250;28;20463;-68
2023/05/03 01:39:25;;;;;;;10.23;2.97;;;6.90;99.90;;;;;;5032258;28;20467;-68
2023/05/03 01:41:52;;;;;;;4.73;2.73;;;6.90;99.90;;;;;;5024784;28;20426;-68
2023/05/03 01:44:20;;;;;;;7.57;3.00;;;6.90;99.90;;;;;;5024439;28;20578;-68
2023/05/03 01:46:46;;;;;;;6.47;3.43;;;6.90;99.90;;;;;;5019752;28;20425;-68
2023/05/03 01:49:12;;;;;;;4.40;2.80;;;6.80;99.90;;;;;;5017880;28;20553;-68
2023/05/03 01:51:38;;;;;;;5.40;2.80;;;6.70;99.90;;;;;;5031544;28;20413;-68
2023/05/03 01:54:05;;;;;;;5.00;2.80;;;6.70;99.90;;;;;;5018547;28;20190;-68
2023/05/03 01:56:34;;;;;;;9.13;3.30;;;6.60;99.90;;;;;;5024114;28;20896;-69
2023/05/03 01:59:00;;;;;;;7.23;4.00;;;6.60;99.90;;;;;;5024928;28;20768;-68
2023/05/03 02:01:25;;;;;;;7.70;3.33;;;6.60;99.90;;;;;;5014290;28;20608;-68
2023/05/03 02:03:51;;;;;;;5.47;2.73;;;6.50;99.90;;;;;;5024382;28;20202;-68
2023/05/03 02:06:17;;;;;;;6.53;3.27;;;6.40;99.90;;;;;;5023610;28;20266;-68
2023/05/03 02:08:42;;;;;;;7.20;4.07;;;6.40;99.90;;;;;;5026072;28;20259;-68
2023/05/03 02:11:08;;;;;;;5.70;3.07;;;6.30;99.90;;;;;;5023652;28;20211;-68
2023/05/03 02:13:36;;;;;;;8.50;4.00;;;6.30;99.90;;;;;;5024064;28;20178;-68
2023/05/03 02:16:02;;;;;;;5.00;2.90;;;6.20;99.90;;;;;;5019091;28;20615;-68
2023/05/03 02:18:30;;;;;;;5.13;3.13;;;6.20;99.90;;;;;;5030051;28;20424;-68
2023/05/03 02:20:56;;;;;;;5.30;2.90;;;6.20;99.90;;;;;;5019143;28;20178;-68
2023/05/03 02:23:22;;;;;;;24.37;3.53;;;6.20;99.90;;;;;;5030197;28;20440;-68
2023/05/03 02:25:48;;;;;;;7.93;3.47;;;6.10;99.90;;;;;;5023144;28;20431;-68
2023/05/03 02:28:14;;;;;;;9.17;3.93;;;6.10;99.90;;;;;;5026424;28;20880;-68
2023/05/03 02:30:40;;;;;;;5.83;2.93;;;6.10;99.90;;;;;;5025293;28;20424;-68
2023/05/03 02:33:05;;;;;;;6.00;3.07;;;6.00;99.90;;;;;;5024495;28;20469;-68
2023/05/03 02:35:31;;;;;;;7.37;3.50;;;6.00;99.90;;;;;;5027066;28;20611;-68
2023/05/03 02:37:57;;;;;;;7.33;3.40;;;6.00;99.90;;;;;;5022674;28;20187;-68
2023/05/03 02:40:22;;;;;;;5.27;2.83;;;5.90;99.90;;;;;;5019056;28;20185;-68
2023/05/03 02:42:48;;;;;;;8.10;3.60;;;5.90;99.90;;;;;;5028510;28;20214;-68
2023/05/03 02:45:13;;;;;;;5.83;2.83;;;5.90;99.90;;;;;;5018407;28;20205;-68
2023/05/03 02:47:39;;;;;;;8.93;3.97;;;5.90;99.90;;;;;;5017865;28;20245;-69
2023/05/03 02:50:06;;;;;;;4.40;2.83;;;5.80;99.90;;;;;;5022704;28;20175;-68
2023/05/03 02:52:31;;;;;;;7.40;3.40;;;5.80;99.90;;;;;;5023747;28;20469;-68
2023/05/03 02:54:57;;;;;;;7.60;3.73;;;5.80;99.90;;;;;;5018480;28;20421;-68
2023/05/03 02:57:22;;;;;;;6.27;3.07;;;5.80;99.90;;;;;;5030561;28;20266;-68
2023/05/03 02:59:48;;;;;;;8.47;3.30;;;5.70;99.90;;;;;;5030452;28;20189;-68
2023/05/03 03:02:14;;;;;;;6.67;3.00;;;5.70;99.90;;;;;;5029464;28;20194;-68
2023/05/03 03:04:39;;;;;;;6.47;3.00;;;5.70;99.90;;;;;;5022982;28;20604;-68
2023/05/03 03:07:05;;;;;;;9.83;3.20;;;5.60;99.90;;;;;;5024053;28;20224;-68
2023/05/03 03:09:30;;;;;;;6.67;3.47;;;5.70;99.90;;;;;;5018422;28;20185;-68
2023/05/03 03:11:56;;;;;;;7.33;2.80;;;5.70;99.90;;;;;;5017099;28;20236;-68
2023/05/03 03:14:22;;;;;;;7.33;3.63;;;5.70;99.90;;;;;;5030847;28;20199;-68
2023/05/03 03:16:50;;;;;;;7.00;3.23;;;5.70;99.90;;;;;;5016746;28;20194;-68
2023/05/03 03:19:16;;;;;;;4.40;3.00;;;5.70;99.90;;;;;;5022554;28;20282;-68
2023/05/03 03:21:41;;;;;;;6.23;3.93;;;5.70;99.90;;;;;;5023537;28;20428;-68
2023/05/03 03:24:07;;;;;;;6.10;2.90;;;5.70;99.90;;;;;;5027696;28;20653;-68
2023/05/03 03:26:33;;;;;;;4.47;2.73;;;5.70;99.90;;;;;;5018891;28;20199;-68
2023/05/03 03:28:58;;;;;;;5.23;2.40;;;5.80;99.90;;;;;;5034655;28;20630;-68
2023/05/03 03:31:27;;;;;;;8.53;3.83;;;5.70;99.90;;;;;;5020984;28;20185;-68
2023/05/03 03:33:52;;;;;;;9.27;3.97;;;5.70;99.90;;;;;;5034154;28;20182;-68
2023/05/03 03:36:18;;;;;;;7.40;3.47;;;5.70;99.90;;;;;;5030518;28;20851;-68
2023/05/03 03:38:44;;;;;;;6.10;3.27;;;5.70;99.90;;;;;;5026479;28;20265;-68
2023/05/03 03:41:09;;;;;;;6.37;3.00;;;5.80;99.90;;;;;;5017834;28;20190;-68
2023/05/03 03:43:35;;;;;;;7.53;3.30;;;5.80;99.90;;;;;;5026384;28;20259;-68
2023/05/03 03:46:00;;;;;;;6.67;3.80;;;5.80;99.90;;;;;;5026842;28;20589;-68
2023/05/03 03:48:26;;;;;;;5.77;3.53;;;5.70;99.90;;;;;;5022442;28;20182;-68
2023/05/03 03:50:52;;;;;;;17.60;3.43;;;5.80;99.90;;;;;;5033877;28;20254;-68
2023/05/03 03:53:17;;;;;;;7.00;3.47;;;5.80;99.90;;;;;;5033776;28;20265;-68
2023/05/03 03:55:43;;;;;;;4.50;2.80;;;5.80;99.90;;;;;;5020980;28;20215;-68
2023/05/03 03:58:08;;;;;;;9.27;2.80;;;5.80;99.90;;;;;;5026739;28;20616;-68
2023/05/03 04:00:35;;;;;;;6.27;3.37;;;5.70;99.90;;;;;;5017305;28;20217;-68
2023/05/03 04:03:01;;;;;;;5.40;3.90;;;5.70;99.90;;;;;;5033989;28;20179;-68
2023/05/03 04:05:26;;;;;;;8.40;3.40;;;5.70;99.90;;;;;;5019111;28;20479;-68
2023/05/03 04:07:52;;;;;;;5.87;3.90;;;5.70;99.90;;;;;;5022645;28;20183;-68
2023/05/03 04:10:18;;;;;;;9.43;4.67;;;5.70;99.90;;;;;;5029258;28;20341;-68
2023/05/03 04:12:43;;;;;;;6.40;3.57;;;5.70;99.90;;;;;;5031458;28;20178;-68
2023/05/03 04:15:10;;;;;;;11.87;5.87;;;5.60;99.90;;;;;;5020153;28;20194;-68
2023/05/03 04:17:36;;;;;;;7.07;3.40;;;5.70;99.90;;;;;;5025919;28;20185;-68
2023/05/03 04:20:12;;;;;;;9.37;5.13;;;5.70;99.90;;;;;;5023838;28;20426;-68
2023/05/03 04:22:39;;;;;;;9.97;4.73;;;5.80;99.90;;;;;;5027849;28;20186;-68
2023/05/03 04:25:07;;;;;;;12.87;6.83;;;5.90;99.90;;;;;;5011258;28;20472;-68
2023/05/03 04:27:33;;;;;;;8.87;5.20;;;6.00;99.90;;;;;;5023361;28;20461;-68
2023/05/03 04:29:58;;;;;;;9.70;4.33;;;6.00;99.90;;;;;;5030210;28;20417;-68
2023/05/03 04:32:24;;;;;;;14.63;5.57;;;6.10;99.90;;;;;;5025975;28;21157;-68
2023/05/03 04:34:51;;;;;;;8.50;4.70;;;6.30;99.90;;;;;;5030453;28;20654;-68
2023/05/03 04:37:20;;;;;;;16.83;5.33;;;6.30;99.90;;;;;;5022840;28;20179;-68
2023/05/03 04:39:45;;;;;;;8.97;4.43;;;6.30;99.90;;;;;;5026914;28;20938;-68
2023/05/03 04:42:14;;;;;;;21.40;6.00;;;6.40;99.90;;;;;;5019290;28;20508;-68
2023/05/03 04:44:43;;;;;;;9.43;5.40;;;6.50;99.90;;;;;;5028897;28;20206;-68
2023/05/03 04:47:09;;;;;;;12.13;5.60;;;6.60;99.90;;;;;;5033547;28;20428;-68
2023/05/03 04:49:36;;;;;;;8.77;5.50;;;6.60;99.90;;;;;;5019460;28;20421;-68
2023/05/03 04:52:02;;;;;;;12.80;5.20;;;6.60;99.90;;;;;;5032886;28;20209;-68
2023/05/03 04:54:28;;;;;;;16.73;5.50;;;6.70;99.90;;;;;;5019532;28;20431;-68
2023/05/03 04:56:54;;;;;;;14.23;5.50;;;6.80;99.90;;;;;;5033329;28;20846;-68
2023/05/03 04:59:20;;;;;;;9.17;5.07;;;6.90;99.90;;;;;;5025899;28;20191;-68
2023/05/03 05:01:46;;;;;;;12.97;5.50;;;6.90;99.90;;;;;;5026335;28;20745;-69
2023/05/03 05:04:11;;;;;;;14.10;4.80;;;7.00;99.90;;;;;;5019150;28;20198;-68
2023/05/03 05:06:37;;;;;;;12.37;5.50;;;7.10;99.90;;;;;;5028680;28;20194;-68
2023/05/03 05:09:06;;;;;;;16.30;7.00;;;7.10;99.90;;;;;;5018842;28;20179;-68
2023/05/03 05:11:32;;;;;;;12.00;5.87;;;7.10;99.90;;;;;;5021977;28;20422;-69
2023/05/03 05:13:58;;;;;;;9.83;4.50;;;7.10;99.90;;;;;;5025522;28;20483;-69
2023/05/03 05:16:23;;;;;;;10.83;5.37;;;7.20;99.90;;;;;;5023514;28;20443;-68
2023/05/03 05:18:49;;;;;;;9.77;4.60;;;7.20;99.90;;;;;;5027893;28;20201;-68
2023/05/03 05:21:14;;;;;;;16.33;4.73;;;7.30;99.90;;;;;;5021844;28;20265;-69
2023/05/03 05:23:40;;;;;;;6.90;4.00;;;7.40;99.90;;;;;;5029513;28;20190;-69
2023/05/03 05:26:06;;;;;;;9.90;4.97;;;7.40;99.90;;;;;;5020649;28;20839;-68
2023/05/03 05:28:32;;;;;;;10.97;5.17;;;7.50;99.90;;;;;;5029529;28;20186;-68
2023/05/03 05:30:57;;;;;;;9.70;5.73;;;7.60;99.90;;;;;;5031995;28;20186;-68
2023/05/03 05:33:23;;;;;;;9.13;5.60;;;7.70;99.90;;;;;;5025789;28;20324;-69
2023/05/03 05:35:49;;;;;;;16.33;5.50;;;7.80;99.90;;;;;;5029104;28;20206;-69
2023/05/03 05:38:17;;;;;;;10.57;5.80;;;7.90;99.90;;;;;;5028613;28;20194;-69
2023/05/03 05:40:43;;;;;;;14.07;5.80;;;8.00;99.90;;;;;;5020992;28;20179;-68
2023/05/03 05:43:08;;;;;;;11.77;6.10;;;8.10;99.90;;;;;;5027487;28;20430;-69
2023/05/03 05:45:34;;;;;;;9.77;5.33;;;8.20;99.90;;;;;;5022528;28;20209;-69
2023/05/03 05:48:00;;;;;;;14.60;5.20;;;8.30;99.90;;;;;;5018925;28;20657;-69
2023/05/03 05:50:26;;;;;;;14.10;6.10;;;8.30;99.90;;;;;;5030040;28;20413;-69
2023/05/03 05:52:52;;;;;;;9.00;5.60;;;8.40;99.90;;;;;;5018293;28;20175;-69
2023/05/03 05:55:18;;;;;;;9.30;4.83;;;8.40;99.90;;;;;;5021895;28;20698;-69
2023/05/03 05:57:43;;;;;;;11.93;5.73;;;8.40;99.90;;;;;;5025596;28;20437;-69
2023/05/03 06:00:13;;;;;;;8.97;4.63;;;8.50;99.90;;;;;;5012531;28;20225;-69
2023/05/03 06:02:41;;;;;;;11.47;5.73;;;8.40;99.90;;;;;;5018085;28;20264;-69
2023/05/03 06:05:07;;;;;;;11.47;6.70;;;8.40;99.90;;;;;;5022742;28;20532;-69
2023/05/03 06:07:32;;;;;;;12.70;6.20;;;8.40;99.90;;;;;;5031784;28;20505;-69
2023/05/03 06:09:58;;;;;;;8.17;4.90;;;8.40;99.90;;;;;;5031663;28;20418;-69
2023/05/03 06:12:24;;;;;;;10.60;5.37;;;8.50;99.90;;;;;;5016245;28;20262;-69
2023/05/03 06:14:50;;;;;;;9.73;5.50;;;8.50;99.90;;;;;;5021798;28;20194;-68
2023/05/03 06:17:16;;;;;;;8.40;5.17;;;8.50;99.90;;;;;;5031377;28;20435;-69
2023/05/03 06:19:42;;;;;;;10.40;5.80;;;8.60;99.90;;;;;;5030766;28;20619;-69
2023/05/03 06:22:07;;;;;;;9.40;4.90;;;8.40;99.90;;;;;;5030816;28;20194;-69
2023/05/03 06:24:33;;;;;;;11.33;5.07;;;8.40;99.90;;;;;;5019959;28;20207;-69
2023/05/03 06:26:59;;;;;;;10.40;5.27;;;8.40;99.90;;;;;;5024742;28;20210;-69
2023/05/03 06:29:25;;;;;;;55.40;5.70;;;8.40;99.90;;;;;;5023102;28;20213;-69
2023/05/03 06:31:51;;;;;;;12.10;6.00;;;8.40;99.90;;;;;;5018416;28;20183;-69
2023/05/03 06:34:23;;;;;;;13.73;5.70;;;8.70;99.90;;;;;;5029039;28;20729;-69
2023/05/03 06:36:49;;;;;;;7.50;3.97;;;8.70;99.90;;;;;;5025501;28;20426;-68
2023/05/03 06:39:15;;;;;;;16.10;5.67;;;8.80;99.90;;;;;;5019669;28;20460;-69
2023/05/03 06:41:41;;;;;;;7.80;5.03;;;8.70;99.90;;;;;;5022752;28;20430;-69
2023/05/03 06:44:07;;;;;;;14.10;6.67;;;8.70;99.90;;;;;;5025646;28;20468;-69
2023/05/03 06:46:33;;;;;;;10.33;5.37;;;8.70;99.90;;;;;;5029833;28;20674;-69
2023/05/03 06:48:58;;;;;;;12.40;6.30;;;8.80;99.90;;;;;;5019489;28;20183;-69
2023/05/03 06:51:31;;;;;;;10.17;4.93;;;8.80;99.90;;;;;;5024472;28;20620;-69
2023/05/03 06:54:00;;;;;;;9.70;5.50;;;8.90;99.90;;;;;;5023356;28;20186;-69
2023/05/03 06:56:27;;;;;;;18.03;6.40;;;9.00;99.90;;;;;;5017815;28;20429;-69
2023/05/03 06:58:53;;;;;;;13.00;6.30;;;9.00;99.90;;;;;;5030010;28;20432;-69
2023/05/03 07:01:19;;;;;;;7.47;5.10;;;9.10;99.90;;;;;;5029334;28;20425;-69
2023/05/03 07:03:45;;;;;;;7.47;5.10;;;9.10;99.90;;;;;;5018436;28;20513;-69
2023/05/03 07:06:12;;;;;;;9.23;5.30;;;9.10;99.90;;;;;;5024159;28;20426;-69
2023/05/03 07:08:37;;;;;;;11.53;4.73;;;9.20;99.90;;;;;;5023338;28;20421;-69
2023/05/03 07:11:03;;;;;;;10.70;4.63;;;9.20;99.90;;;;;;5025313;28;20428;-69
2023/05/03 07:13:29;;;;;;;8.80;4.80;;;9.20;99.90;;;;;;5022483;28;20174;-69
2023/05/03 07:15:55;;;;;;;10.83;5.87;;;9.30;99.90;;;;;;5025389;28;20997;-69
2023/05/03 07:18:21;;;;;;;9.47;5.50;;;9.40;99.90;;;;;;5023142;28;20475;-69
2023/05/03 07:20:47;;;;;;;11.63;6.23;;;9.50;99.90;;;;;;5017962;28;20821;-69
2023/05/03 07:23:13;;;;;;;8.63;4.43;;;9.50;99.90;;;;;;5029938;28;20174;-69
2023/05/03 07:25:39;;;;;;;8.03;5.50;;;9.50;99.90;;;;;;5029669;28;20488;-69
2023/05/03 07:28:05;;;;;;;12.63;5.30;;;9.40;99.90;;;;;;5017336;28;20417;-69
2023/05/03 07:30:30;;;;;;;11.83;5.83;;;9.50;99.90;;;;;;5030723;28;20847;-69
2023/05/03 07:32:56;;;;;;;22.83;6.07;;;9.50;99.90;;;;;;5023584;28;20686;-69
2023/05/03 07:35:22;;;;;;;10.13;5.50;;;9.70;99.90;;;;;;5022186;28;20182;-69
2023/05/03 07:37:47;;;;;;;9.73;5.60;;;9.90;99.90;;;;;;5020066;28;20186;-69
2023/05/03 07:40:13;;;;;;;11.70;5.07;;;9.90;99.90;;;;;;5022189;28;20269;-69
2023/05/03 07:42:39;;;;;;;15.27;5.93;;;10.00;99.90;;;;;;5024427;28;20186;-69
2023/05/03 07:45:05;;;;;;;10.50;6.07;;;10.10;99.90;;;;;;5030347;28;20571;-68
2023/05/03 07:47:33;;;;;;;18.13;5.87;;;10.40;99.90;;;;;;5028021;28;20247;-69
2023/05/03 07:49:59;;;;;;;10.50;6.27;;;10.40;99.90;;;;;;5022954;28;20460;-69
2023/05/03 07:52:25;;;;;;;10.37;5.30;;;10.40;99.90;;;;;;5024098;28;20893;-69
2023/05/03 07:54:52;;;;;;;16.70;5.80;;;10.50;99.90;;;;;;5023276;28;20497;-69
2023/05/03 07:57:17;;;;;;;10.57;5.57;;;10.50;99.90;;;;;;5021355;28;20195;-69
2023/05/03 07:59:43;;;;;;;10.40;4.90;;;10.50;99.90;;;;;;5021577;28;20579;-69
2023/05/03 08:02:09;;;;;;;9.67;4.90;;;10.60;99.90;;;;;;5016529;28;20194;-69
2023/05/03 08:04:35;;;;;;;12.10;5.80;;;10.80;99.90;;;;;;5029599;28;20651;-69
2023/05/03 08:07:01;;;;;;;10.87;6.00;;;10.90;99.90;;;;;;5029082;28;20421;-69
2023/05/03 08:09:27;;;;;;;8.50;4.93;;;11.10;99.90;;;;;;5025759;28;20600;-69
2023/05/03 08:11:55;;;;;;;15.07;6.20;;;11.30;99.90;;;;;;5024150;28;20513;-69
2023/05/03 08:14:21;;;;;;;11.77;5.57;;;11.00;99.90;;;;;;5027571;28;20450;-69
2023/05/03 08:16:46;;;;;;;11.97;6.20;;;11.00;99.90;;;;;;5028641;28;20524;-69
2023/05/03 08:19:12;;;;;;;7.93;4.17;;;11.20;99.90;;;;;;5023525;28;20280;-69
2023/05/03 08:21:37;;;;;;;9.50;5.73;;;11.50;99.90;;;;;;5031115;28;20186;-69
2023/05/03 08:24:05;;;;;;;7.60;4.40;;;12.20;99.90;;;;;;5023488;28;20208;-70
2023/05/03 08:26:31;;;;;;;13.77;5.13;;;13.50;99.90;;;;;;5030764;28;20311;-70
2023/05/03 08:28:57;;;;;;;5.80;3.37;;;14.90;99.90;;;;;;5031096;28;20424;-70
2023/05/03 08:31:23;;;;;;;8.53;4.27;;;14.50;99.90;;;;;;5028411;28;20437;-69
2023/05/03 08:33:49;;;;;;;9.60;4.60;;;14.00;99.90;;;;;;5028133;28;20293;-70
2023/05/03 08:36:15;;;;;;;9.07;4.30;;;14.20;99.90;;;;;;5028939;28;20268;-70
2023/05/03 08:38:41;;;;;;;10.30;4.53;;;14.50;99.90;;;;;;5030591;28;20814;-70
2023/05/03 08:41:29;;;;;;;11.13;5.77;;;15.00;99.90;;;;;;5029710;28;20182;-70
2023/05/03 08:43:56;;;;;;;8.97;4.87;;;15.40;99.80;;;;;;5017903;28;20697;-70
2023/05/03 08:46:22;;;;;;;9.37;4.20;;;15.00;99.90;;;;;;5023861;28;20473;-69
2023/05/03 08:48:49;;;;;;;9.73;4.10;;;14.60;99.90;;;;;;5021630;28;20536;-69
2023/05/03 08:51:16;;;;;;;16.30;4.70;;;14.20;99.90;;;;;;5022537;28;20425;-70
2023/05/03 08:53:41;;;;;;;9.10;4.73;;;14.30;99.90;;;;;;5019033;28;20433;-70
2023/05/03 08:56:08;;;;;;;6.90;3.97;;;14.80;99.90;;;;;;5021696;28;20437;-69
2023/05/03 08:58:35;;;;;;;13.30;4.70;;;15.90;99.60;;;;;;5031593;28;20174;-70
2023/05/03 09:01:08;;;;;;;21.47;5.00;;;16.40;98.20;;;;;;5020676;28;20492;-68
2023/05/03 09:03:35;;;;;;;7.20;4.03;;;16.50;98.40;;;;;;5023625;28;20528;-67
2023/05/03 09:06:01;;;;;;;7.17;3.80;;;16.70;98.30;;;;;;5031250;28;20428;-67
2023/05/03 09:08:27;;;;;;;6.50;3.70;;;17.40;97.00;;;;;;5020667;28;20422;-68
2023/05/03 09:10:53;;;;;;;12.63;4.13;;;16.90;96.90;;;;;;5026346;28;20519;-67
2023/05/03 09:13:19;;;;;;;10.53;3.70;;;17.70;95.80;;;;;;5024411;28;20900;-67
2023/05/03 09:15:55;;;;;;;9.00;4.07;;;17.80;96.20;;;;;;5019212;28;20193;-68
2023/05/03 09:18:22;;;;;;;8.50;4.50;;;17.70;95.10;;;;;;5019310;28;20206;-68
2023/05/03 09:20:52;;;;;;;9.73;4.00;;;18.00;95.20;;;;;;5031245;28;20972;-68
2023/05/03 09:23:38;;;;;;;7.17;4.63;;;17.90;96.30;;;;;;5027579;28;20421;-68
2023/05/03 09:26:05;;;;;;;6.73;3.77;;;18.70;93.40;;;;;;5022475;28;20960;-68
2023/05/03 09:28:40;;;;;;;8.33;3.80;;;18.40;95.00;;;;;;5019255;28;20467;-68
2023/05/03 09:31:06;;;;;;;8.17;4.40;;;18.10;95.00;;;;;;5031503;28;20507;-68
2023/05/03 09:33:32;;;;;;;5.77;3.43;;;17.90;95.10;;;;;;5025787;28;20499;-68
2023/05/03 09:36:00;;;;;;;10.53;4.20;;;18.20;94.00;;;;;;5031716;28;20185;-69
2023/05/03 09:38:28;;;;;;;16.87;5.13;;;17.70;95.10;;;;;;5026839;28;20183;-68
2023/05/03 09:40:53;;;;;;;8.93;4.13;;;17.80;95.70;;;;;;5024026;28;21095;-68
2023/05/03 09:43:19;;;;;;;7.47;3.90;;;18.10;94.40;;;;;;5018285;28;20463;-68
2023/05/03 09:45:44;;;;;;;6.70;3.90;;;18.70;93.80;;;;;;5027015;28;20205;-68
2023/05/03 09:48:12;;;;;;;8.10;3.70;;;18.50;93.70;;;;;;5018563;28;20642;-69
2023/05/03 09:50:37;;;;;;;7.73;3.77;;;18.30;92.90;;;;;;5031753;28;20227;-68
2023/05/03 09:53:05;;;;;;;9.83;3.60;;;17.80;94.50;;;;;;5018102;28;20511;-68
2023/05/03 09:55:40;;;;;;;5.60;3.33;;;18.20;94.20;;;;;;5032140;28;20314;-69
2023/05/03 09:58:06;;;;;;;7.10;3.57;;;18.30;92.70;;;;;;5019407;28;20437;-68
2023/05/03 10:00:37;;;;;;;5.87;3.33;;;18.60;92.60;;;;;;5031009;28;20556;-69
2023/05/03 10:03:11;;;;;;;5.70;3.20;;;18.10;92.30;;;;;;5019180;28;21075;-69
2023/05/03 10:05:46;;;;;;;6.67;3.63;;;17.80;92.90;;;;;;5019377;28;20468;-68
2023/05/03 10:08:27;;;;;;;6.10;3.83;;;17.40;95.00;;;;;;5026678;28;20905;-68
2023/05/03 10:10:53;;;;;;;5.90;2.97;;;17.30;94.60;;;;;;5034905;28;20739;-68
2023/05/03 10:13:23;;;;;;;10.60;3.60;;;16.70;94.90;;;;;;5007380;28;21224;-68
2023/05/03 10:16:01;;;;;;;8.30;3.77;;;16.90;95.40;;;;;;5037539;28;20976;-68
2023/05/03 10:18:30;;;;;;;6.93;3.00;;;17.40;93.90;;;;;;5028106;28;20424;-68
2023/05/03 10:21:01;;;;;;;9.20;3.97;;;17.00;95.10;;;;;;5041351;28;20475;-68
2023/05/03 10:23:27;;;;;;;6.40;3.73;;;16.20;94.50;;;;;;5028788;28;20735;-68
2023/05/03 10:26:05;;;;;;;7.90;3.27;;;16.40;94.20;;;;;;5038778;28;20467;-68
2023/05/03 10:28:32;;;;;;;6.83;3.90;;;16.90;93.90;;;;;;5049755;28;20475;-68
2023/05/03 10:30:58;;;;;;;7.87;3.30;;;17.20;94.10;;;;;;5047377;28;20917;-68
2023/05/03 10:33:31;;;;;;;6.97;3.77;;;17.40;94.10;;;;;;5037990;28;20503;-68
2023/05/03 10:35:58;;;;;;;5.10;3.50;;;17.70;93.70;;;;;;5033602;28;20213;-68
2023/05/03 10:38:28;;;;;;;10.13;4.10;;;17.50;93.00;;;;;;5042716;28;20428;-68
2023/05/03 10:40:55;;;;;;;10.30;3.70;;;17.30;93.60;;;;;;5049610;28;20466;-68
2023/05/03 10:43:32;;;;;;;8.40;3.80;;;17.20;94.70;;;;;;5035863;28;20515;-68
2023/05/03 10:46:04;;;;;;;8.40;3.23;;;17.40;92.80;;;;;;5039006;28;20466;-68
2023/05/03 10:48:30;;;;;;;5.20;3.10;;;17.40;93.00;;;;;;5041172;28;20928;-68
2023/05/03 10:51:17;;;;;;;7.60;3.23;;;17.40;92.60;;;;;;5042101;28;20458;-67
2023/05/03 10:53:43;;;;;;;10.00;4.30;;;17.40;92.40;;;;;;5040743;28;20460;-68
2023/05/03 10:56:11;;;;;;;5.67;3.30;;;17.50;91.80;;;;;;5031033;28;20425;-67
2023/05/03 10:58:37;;;;;;;5.50;3.53;;;17.40;92.00;;;;;;5035932;28;20964;-68
2023/05/03 11:01:04;;;;;;;4.40;2.53;;;17.40;92.90;;;;;;5043515;28;20416;-68
2023/05/03 11:03:35;;;;;;;5.37;2.73;;;17.50;93.20;;;;;;5040766;28;20608;-68
2023/05/03 11:06:02;;;;;;;5.47;3.43;;;17.70;92.90;;;;;;5041543;28;20432;-68
2023/05/03 11:08:36;;;;;;;8.33;4.53;;;18.00;92.80;;;;;;5041636;28;20473;-67
2023/05/03 11:11:06;;;;;;;8.03;2.90;;;18.00;91.00;;;;;;5049004;28;20416;-68
2023/05/03 11:13:32;;;;;;;5.07;3.60;;;18.10;90.50;;;;;;5033924;28;20425;-68
2023/05/03 11:15:57;;;;;;;8.00;4.10;;;18.00;90.50;;;;;;5048730;28;20420;-67
2023/05/03 11:18:26;;;;;;;6.13;3.27;;;18.10;91.30;;;;;;5046713;28;20186;-69
2023/05/03 11:20:52;;;;;;;5.50;2.93;;;17.50;90.00;;;;;;5028112;28;20186;-68
2023/05/03 11:23:23;;;;;;;5.03;2.93;;;17.00;90.60;;;;;;5032958;28;21011;-68
2023/05/03 11:25:51;;;;;;;5.60;3.00;;;17.40;91.00;;;;;;5049657;28;20479;-68
2023/05/03 11:28:16;;;;;;;10.83;3.40;;;17.70;91.80;;;;;;5035194;28;20455;-68
2023/05/03 11:30:42;;;;;;;5.07;3.20;;;18.10;88.10;;;;;;5039341;28;20440;-68
2023/05/03 11:33:08;;;;;;;7.97;3.47;;;18.10;89.10;;;;;;5041064;28;20689;-68
2023/05/03 11:35:34;;;;;;;5.40;2.97;;;18.00;89.40;;;;;;5034500;28;20183;-68
2023/05/03 11:38:00;;;;;;;5.40;3.00;;;17.70;89.10;;;;;;5045865;28;20540;-68
2023/05/03 11:40:26;;;;;;;4.60;2.27;;;17.80;90.70;;;;;;5041684;28;20421;-68
2023/05/03 11:42:59;;;;;;;5.20;3.03;;;18.30;90.60;;;;;;5030582;28;20214;-68
2023/05/03 11:45:30;;;;;;;7.33;2.00;;;18.50;90.10;;;;;;5029842;28;20491;-69
2023/05/03 11:47:56;;;;;;;7.20;3.73;;;18.60;88.40;;;;;;5035952;28;20851;-69
2023/05/03 11:50:44;;;;;;;6.43;2.93;;;18.30;90.10;;;;;;5043179;28;20917;-68
2023/05/03 11:53:11;;;;;;;7.20;3.13;;;18.40;90.10;;;;;;5026411;28;20480;-69
2023/05/03 11:55:45;;;;;;;5.57;2.13;;;18.10;89.40;;;;;;5054265;28;20630;-68
2023/05/03 11:58:16;;;;;;;8.53;2.00;;;18.30;88.50;;;;;;5025087;28;20416;-68
2023/05/03 12:00:47;;;;;;;7.50;2.10;;;18.10;89.10;;;;;;5044152;28;20457;-69
2023/05/03 12:03:21;;;;;;;9.10;3.00;;;18.00;89.10;;;;;;5036445;28;20433;-68
2023/05/03 12:05:48;;;;;;;7.13;2.77;;;18.20;87.90;;;;;;5048164;28;20558;-69
2023/05/03 12:08:14;;;;;;;6.27;3.17;;;18.00;90.90;;;;;;5043897;28;20412;-69
2023/05/03 12:10:41;;;;;;;5.23;1.90;;;18.00;90.20;;;;;;5053692;28;20463;-69
2023/05/03 12:13:06;;;;;;;6.80;2.40;;;18.30;89.20;;;;;;5046159;28;20424;-68
2023/05/03 12:15:33;;;;;;;4.10;2.27;;;18.50;87.90;;;;;;5049533;28;20439;-68
2023/05/03 12:18:01;;;;;;;4.80;2.27;;;18.70;86.70;;;;;;5040954;28;20194;-68
2023/05/03 12:20:31;;;;;;;5.07;2.50;;;18.70;86.80;;;;;;5045901;28;20425;-72
2023/05/03 12:23:07;;;;;;;12.77;3.57;;;18.90;85.40;;;;;;5044765;28;20412;-72
2023/05/03 12:25:35;;;;;;;4.10;2.20;;;18.80;85.00;;;;;;5033084;28;20467;-73
2023/05/03 12:28:02;;;;;;;4.00;1.90;;;18.80;83.70;;;;;;5045408;28;20427;-72
2023/05/03 12:30:28;;;;;;;4.60;2.57;;;18.90;84.80;;;;;;5043473;28;20428;-72
2023/05/03 12:32:54;;;;;;;3.40;2.00;;;19.30;81.00;;;;;;5044692;28;20421;-72
2023/05/03 12:35:21;;;;;;;3.93;2.40;;;19.30;81.10;;;;;;5035451;28;20201;-73
2023/05/03 12:37:48;;;;;;;6.60;3.40;;;19.40;80.50;;;;;;5044895;28;20423;-73
2023/05/03 12:40:15;;;;;;;3.83;2.03;;;19.30;82.10;;;;;;5051772;28;20426;-72
2023/05/03 12:42:41;;;;;;;4.63;1.93;;;19.40;82.10;;;;;;5043058;28;20494;-73
2023/05/03 12:45:07;;;;;;;3.87;1.83;;;19.30;81.70;;;;;;5025255;28;20472;-73
2023/05/03 12:47:33;;;;;;;4.00;2.07;;;19.20;80.70;;;;;;5051240;28;20420;-72
2023/05/03 12:50:01;;;;;;;4.60;2.60;;;19.00;81.90;;;;;;5051188;28;20415;-73
2023/05/03 12:52:26;;;;;;;3.70;2.17;;;19.20;81.80;;;;;;5051068;28;20416;-73